sensor_id;sensor_type;location;lat;lon;timestamp;pressure;altitude;pressure_sealevel;temperature;humidity
75852;BME280;64500;52.632;20.656;2023-09-19T00:00:41;99693.98;;;42.81;19.34
75852;BME280;64500;52.632;20.656;2023-09-19T00:03:31;99697.33;;;42.81;19.16
75852;BME280;64500;52.632;20.656;2023-09-19T00:05:58;99696.94;;;42.81;19.39
75852;BME280;64500;52.632;20.656;2023-09-19T00:08:25;99697.99;;;42.82;19.34
75852;BME280;64500;52.632;20.656;2023-09-19T00:10:54;99703.49;;;42.87;19.30
75852;BME280;64500;52.632;20.656;2023-09-19T00:13:21;99698.70;;;43.08;19.21
75852;BME280;64500;52.632;20.656;2023-09-19T00:15:51;99698.75;;;43.06;19.20
75852;BME280;64500;52.632;20.656;2023-09-19T00:18:19;99696.78;;;43.06;18.86
75852;BME280;64500;52.632;20.656;2023-09-19T00:20:47;99697.02;;;43.07;19.22
75852;BME280;64500;52.632;20.656;2023-09-19T00:23:18;99695.46;;;43.00;19.17
75852;BME280;64500;52.632;20.656;2023-09-19T00:25:45;99693.43;;;42.97;19.16
75852;BME280;64500;52.632;20.656;2023-09-19T00:28:12;99694.33;;;42.83;19.32
75852;BME280;64500;52.632;20.656;2023-09-19T00:30:42;99688.39;;;42.88;19.29
75852;BME280;64500;52.632;20.656;2023-09-19T00:33:16;99687.42;;;43.00;19.14
75852;BME280;64500;52.632;20.656;2023-09-19T00:35:50;99692.67;;;42.92;19.01
75852;BME280;64500;52.632;20.656;2023-09-19T00:38:17;99695.11;;;42.91;19.08
75852;BME280;64500;52.632;20.656;2023-09-19T00:40:46;99684.61;;;42.88;19.37
75852;BME280;64500;52.632;20.656;2023-09-19T00:43:16;99691.02;;;42.80;19.09
75852;BME280;64500;52.632;20.656;2023-09-19T00:45:44;99686.63;;;42.67;19.37
75852;BME280;64500;52.632;20.656;2023-09-19T00:48:14;99684.50;;;42.65;19.37
75852;BME280;64500;52.632;20.656;2023-09-19T00:50:42;99677.91;;;42.63;19.32
75852;BME280;64500;52.632;20.656;2023-09-19T00:53:12;99681.95;;;42.60;19.33
75852;BME280;64500;52.632;20.656;2023-09-19T00:55:39;99680.60;;;42.59;19.38
75852;BME280;64500;52.632;20.656;2023-09-19T00:58:10;99681.16;;;42.64;19.38
75852;BME280;64500;52.632;20.656;2023-09-19T01:00:40;99679.83;;;42.72;19.64
75852;BME280;64500;52.632;20.656;2023-09-19T01:03:10;99676.41;;;42.71;19.55
75852;BME280;64500;52.632;20.656;2023-09-19T01:05:37;99673.42;;;42.67;19.37
75852;BME280;64500;52.632;20.656;2023-09-19T01:08:06;99667.60;;;42.63;19.52
75852;BME280;64500;52.632;20.656;2023-09-19T01:10:34;99662.49;;;42.78;19.56
75852;BME280;64500;52.632;20.656;2023-09-19T01:13:09;99661.10;;;42.84;19.45
75852;BME280;64500;52.632;20.656;2023-09-19T01:18:30;99666.38;;;42.74;19.37
75852;BME280;64500;52.632;20.656;2023-09-19T01:26:04;99653.31;;;43.04;19.00
75852;BME280;64500;52.632;20.656;2023-09-19T01:28:56;99646.81;;;42.98;19.08
75852;BME280;64500;52.632;20.656;2023-09-19T01:31:28;99643.25;;;43.07;19.43
75852;BME280;64500;52.632;20.656;2023-09-19T01:34:00;99642.84;;;43.12;19.33
75852;BME280;64500;52.632;20.656;2023-09-19T01:36:34;99633.87;;;43.04;19.24
75852;BME280;64500;52.632;20.656;2023-09-19T01:39:07;99629.15;;;43.01;19.47
75852;BME280;64500;52.632;20.656;2023-09-19T01:44:36;99623.92;;;43.02;19.04
75852;BME280;64500;52.632;20.656;2023-09-19T01:47:09;99625.70;;;43.02;19.19
75852;BME280;64500;52.632;20.656;2023-09-19T01:52:09;99618.38;;;42.98;19.00
75852;BME280;64500;52.632;20.656;2023-09-19T01:54:50;99618.81;;;42.88;19.03
75852;BME280;64500;52.632;20.656;2023-09-19T01:59:50;99612.70;;;42.82;19.45
75852;BME280;64500;52.632;20.656;2023-09-19T02:02:19;99613.23;;;42.87;19.27
75852;BME280;64500;52.632;20.656;2023-09-19T02:04:49;99614.11;;;42.91;19.21
75852;BME280;64500;52.632;20.656;2023-09-19T02:07:17;99611.74;;;42.82;19.31
75852;BME280;64500;52.632;20.656;2023-09-19T02:09:44;99612.05;;;42.72;19.18
75852;BME280;64500;52.632;20.656;2023-09-19T02:12:11;99606.95;;;42.62;19.24
75852;BME280;64500;52.632;20.656;2023-09-19T02:14:38;99603.54;;;42.60;19.52
75852;BME280;64500;52.632;20.656;2023-09-19T02:17:04;99607.14;;;42.63;19.58
75852;BME280;64500;52.632;20.656;2023-09-19T02:19:37;99603.48;;;42.59;19.33
75852;BME280;64500;52.632;20.656;2023-09-19T02:22:05;99599.66;;;42.57;19.38
75852;BME280;64500;52.632;20.656;2023-09-19T02:24:34;99591.24;;;42.49;19.41
75852;BME280;64500;52.632;20.656;2023-09-19T02:27:02;99591.64;;;42.36;19.45
75852;BME280;64500;52.632;20.656;2023-09-19T02:29:33;99594.13;;;42.18;19.58
75852;BME280;64500;52.632;20.656;2023-09-19T02:32:01;99588.66;;;42.18;19.61
75852;BME280;64500;52.632;20.656;2023-09-19T02:34:29;99587.70;;;42.10;19.47
75852;BME280;64500;52.632;20.656;2023-09-19T02:36:56;99589.11;;;42.06;19.77
75852;BME280;64500;52.632;20.656;2023-09-19T02:39:23;99587.64;;;41.98;19.86
75852;BME280;64500;52.632;20.656;2023-09-19T02:41:50;99588.01;;;41.86;19.83
75852;BME280;64500;52.632;20.656;2023-09-19T02:44:17;99586.58;;;41.80;19.93
75852;BME280;64500;52.632;20.656;2023-09-19T02:46:46;99585.70;;;41.86;19.80
75852;BME280;64500;52.632;20.656;2023-09-19T02:49:14;99580.94;;;41.81;19.88
75852;BME280;64500;52.632;20.656;2023-09-19T02:51:41;99581.55;;;41.83;20.06
75852;BME280;64500;52.632;20.656;2023-09-19T02:54:08;99578.98;;;41.82;19.95
75852;BME280;64500;52.632;20.656;2023-09-19T02:56:35;99573.98;;;41.66;20.12
75852;BME280;64500;52.632;20.656;2023-09-19T02:59:03;99572.75;;;41.48;20.28
75852;BME280;64500;52.632;20.656;2023-09-19T03:01:30;99569.89;;;41.51;20.26
75852;BME280;64500;52.632;20.656;2023-09-19T03:03:57;99574.91;;;41.45;20.11
75852;BME280;64500;52.632;20.656;2023-09-19T03:06:24;99575.77;;;41.43;20.24
75852;BME280;64500;52.632;20.656;2023-09-19T03:08:52;99572.63;;;41.39;20.23
75852;BME280;64500;52.632;20.656;2023-09-19T03:11:19;99564.02;;;41.28;20.18
75852;BME280;64500;52.632;20.656;2023-09-19T03:13:53;99562.39;;;41.22;20.27
75852;BME280;64500;52.632;20.656;2023-09-19T03:16:20;99556.88;;;41.16;20.29
75852;BME280;64500;52.632;20.656;2023-09-19T03:18:51;99558.39;;;41.17;20.39
75852;BME280;64500;52.632;20.656;2023-09-19T03:21:18;99557.83;;;41.12;20.27
75852;BME280;64500;52.632;20.656;2023-09-19T03:23:45;99553.04;;;41.11;20.35
75852;BME280;64500;52.632;20.656;2023-09-19T03:26:13;99552.30;;;41.15;20.33
75852;BME280;64500;52.632;20.656;2023-09-19T03:28:43;99548.60;;;41.17;20.39
75852;BME280;64500;52.632;20.656;2023-09-19T03:31:12;99550.61;;;41.13;20.37
75852;BME280;64500;52.632;20.656;2023-09-19T03:33:39;99544.46;;;41.07;20.37
75852;BME280;64500;52.632;20.656;2023-09-19T03:36:06;99539.82;;;40.98;20.51
75852;BME280;64500;52.632;20.656;2023-09-19T03:38:34;99541.61;;;40.95;20.41
75852;BME280;64500;52.632;20.656;2023-09-19T03:41:01;99537.45;;;41.05;20.32
75852;BME280;64500;52.632;20.656;2023-09-19T03:43:32;99540.44;;;41.03;20.48
75852;BME280;64500;52.632;20.656;2023-09-19T03:46:02;99544.13;;;41.08;20.71
75852;BME280;64500;52.632;20.656;2023-09-19T03:48:32;99549.23;;;41.14;20.45
75852;BME280;64500;52.632;20.656;2023-09-19T03:51:00;99548.30;;;41.05;20.49
75852;BME280;64500;52.632;20.656;2023-09-19T03:53:27;99550.53;;;41.05;20.64
75852;BME280;64500;52.632;20.656;2023-09-19T03:55:54;99551.67;;;41.18;20.49
75852;BME280;64500;52.632;20.656;2023-09-19T03:58:21;99552.48;;;41.16;20.48
75852;BME280;64500;52.632;20.656;2023-09-19T04:00:48;99552.66;;;41.13;20.45
75852;BME280;64500;52.632;20.656;2023-09-19T04:03:17;99542.38;;;41.17;20.33
75852;BME280;64500;52.632;20.656;2023-09-19T04:05:47;99537.83;;;41.14;20.48
75852;BME280;64500;52.632;20.656;2023-09-19T04:08:14;99536.48;;;41.09;20.32
75852;BME280;64500;52.632;20.656;2023-09-19T04:10:42;99541.27;;;41.16;20.29
75852;BME280;64500;52.632;20.656;2023-09-19T04:13:10;99530.02;;;41.26;20.47
75852;BME280;64500;52.632;20.656;2023-09-19T04:15:37;99527.17;;;41.30;20.49
75852;BME280;64500;52.632;20.656;2023-09-19T04:18:06;99524.65;;;41.33;20.42
75852;BME280;64500;52.632;20.656;2023-09-19T04:20:33;99530.21;;;41.36;20.41
75852;BME280;64500;52.632;20.656;2023-09-19T04:23:01;99529.33;;;41.43;20.41
75852;BME280;64500;52.632;20.656;2023-09-19T04:25:28;99531.44;;;41.46;20.48
75852;BME280;64500;52.632;20.656;2023-09-19T04:27:57;99528.15;;;41.55;20.37
75852;BME280;64500;52.632;20.656;2023-09-19T04:30:25;99529.73;;;41.60;20.38
75852;BME280;64500;52.632;20.656;2023-09-19T04:32:52;99531.36;;;41.68;20.39
75852;BME280;64500;52.632;20.656;2023-09-19T04:35:20;99536.34;;;41.76;20.30
75852;BME280;64500;52.632;20.656;2023-09-19T04:37:47;99534.95;;;41.81;20.26
75852;BME280;64500;52.632;20.656;2023-09-19T04:40:14;99531.74;;;41.89;20.19
75852;BME280;64500;52.632;20.656;2023-09-19T04:42:44;99531.41;;;41.97;20.41
75852;BME280;64500;52.632;20.656;2023-09-19T04:45:11;99530.40;;;42.11;20.19
75852;BME280;64500;52.632;20.656;2023-09-19T04:47:38;99533.36;;;42.24;20.07
75852;BME280;64500;52.632;20.656;2023-09-19T04:50:06;99529.42;;;42.33;19.97
75852;BME280;64500;52.632;20.656;2023-09-19T04:52:34;99523.75;;;42.46;19.99
75852;BME280;64500;52.632;20.656;2023-09-19T04:55:01;99527.09;;;42.71;20.17
75852;BME280;64500;52.632;20.656;2023-09-19T04:57:29;99519.95;;;42.93;19.90
75852;BME280;64500;52.632;20.656;2023-09-19T04:59:58;99530.77;;;43.15;19.74
75852;BME280;64500;52.632;20.656;2023-09-19T05:02:25;99518.52;;;43.37;19.74
75852;BME280;64500;52.632;20.656;2023-09-19T05:04:52;99514.92;;;43.48;19.36
75852;BME280;64500;52.632;20.656;2023-09-19T05:07:20;99519.69;;;43.68;19.52
75852;BME280;64500;52.632;20.656;2023-09-19T05:09:50;99523.39;;;43.83;19.84
75852;BME280;64500;52.632;20.656;2023-09-19T05:12:17;99522.06;;;43.89;19.55
75852;BME280;64500;52.632;20.656;2023-09-19T05:14:46;99514.71;;;43.99;19.31
75852;BME280;64500;52.632;20.656;2023-09-19T05:17:13;99512.48;;;44.11;19.32
75852;BME280;64500;52.632;20.656;2023-09-19T05:19:43;99512.02;;;44.36;19.16
75852;BME280;64500;52.632;20.656;2023-09-19T05:22:10;99518.69;;;44.53;19.05
75852;BME280;64500;52.632;20.656;2023-09-19T05:24:39;99518.31;;;44.67;18.94
75852;BME280;64500;52.632;20.656;2023-09-19T05:27:06;99522.50;;;44.73;18.67
75852;BME280;64500;52.632;20.656;2023-09-19T05:29:33;99523.52;;;44.76;18.84
75852;BME280;64500;52.632;20.656;2023-09-19T05:32:00;99521.94;;;44.75;18.57
75852;BME280;64500;52.632;20.656;2023-09-19T05:34:27;99524.62;;;44.75;18.91
75852;BME280;64500;52.632;20.656;2023-09-19T05:36:56;99532.34;;;44.85;18.69
75852;BME280;64500;52.632;20.656;2023-09-19T05:39:23;99531.70;;;44.87;18.66
75852;BME280;64500;52.632;20.656;2023-09-19T05:41:50;99528.77;;;44.98;18.66
75852;BME280;64500;52.632;20.656;2023-09-19T05:44:17;99533.39;;;45.04;18.43
75852;BME280;64500;52.632;20.656;2023-09-19T05:46:44;99534.75;;;45.09;18.42
75852;BME280;64500;52.632;20.656;2023-09-19T05:49:14;99536.27;;;45.16;18.47
75852;BME280;64500;52.632;20.656;2023-09-19T05:51:42;99539.70;;;45.24;18.36
75852;BME280;64500;52.632;20.656;2023-09-19T05:54:09;99540.34;;;45.45;18.05
75852;BME280;64500;52.632;20.656;2023-09-19T05:56:37;99536.33;;;45.43;18.26
75852;BME280;64500;52.632;20.656;2023-09-19T05:59:04;99538.09;;;45.45;18.29
75852;BME280;64500;52.632;20.656;2023-09-19T06:01:32;99535.77;;;45.66;18.01
75852;BME280;64500;52.632;20.656;2023-09-19T06:04:04;99536.86;;;45.87;18.09
75852;BME280;64500;52.632;20.656;2023-09-19T06:06:31;99538.36;;;46.05;18.07
75852;BME280;64500;52.632;20.656;2023-09-19T06:09:00;99538.92;;;46.34;17.99
75852;BME280;64500;52.632;20.656;2023-09-19T06:11:27;99540.89;;;46.47;17.77
75852;BME280;64500;52.632;20.656;2023-09-19T06:13:56;99542.29;;;46.63;17.76
75852;BME280;64500;52.632;20.656;2023-09-19T06:16:23;99543.71;;;46.90;17.60
75852;BME280;64500;52.632;20.656;2023-09-19T06:18:50;99547.53;;;47.28;17.53
75852;BME280;64500;52.632;20.656;2023-09-19T06:21:17;99551.11;;;47.51;17.50
75852;BME280;64500;52.632;20.656;2023-09-19T06:23:44;99547.48;;;47.66;16.85
75852;BME280;64500;52.632;20.656;2023-09-19T06:26:11;99541.99;;;47.85;16.76
75852;BME280;64500;52.632;20.656;2023-09-19T06:28:40;99549.29;;;47.89;16.90
75852;BME280;64500;52.632;20.656;2023-09-19T06:31:07;99556.09;;;48.14;16.93
75852;BME280;64500;52.632;20.656;2023-09-19T06:33:37;99560.98;;;48.51;16.56
75852;BME280;64500;52.632;20.656;2023-09-19T06:36:07;99557.25;;;48.83;16.50
75852;BME280;64500;52.632;20.656;2023-09-19T06:38:35;99558.58;;;48.91;16.09
75852;BME280;64500;52.632;20.656;2023-09-19T06:41:02;99557.96;;;48.87;16.25
75852;BME280;64500;52.632;20.656;2023-09-19T06:43:33;99560.55;;;48.73;16.03
75852;BME280;64500;52.632;20.656;2023-09-19T06:46:01;99562.05;;;48.47;16.14
75852;BME280;64500;52.632;20.656;2023-09-19T06:48:29;99567.33;;;48.42;16.25
75852;BME280;64500;52.632;20.656;2023-09-19T06:50:56;99567.70;;;48.43;16.15
75852;BME280;64500;52.632;20.656;2023-09-19T06:53:25;99562.81;;;48.45;16.07
75852;BME280;64500;52.632;20.656;2023-09-19T06:55:52;99559.38;;;48.70;16.20
75852;BME280;64500;52.632;20.656;2023-09-19T06:58:20;99560.48;;;48.84;16.01
75852;BME280;64500;52.632;20.656;2023-09-19T07:00:47;99562.13;;;48.57;15.78
75852;BME280;64500;52.632;20.656;2023-09-19T07:03:16;99563.70;;;48.60;15.85
75852;BME280;64500;52.632;20.656;2023-09-19T07:05:46;99571.48;;;48.49;15.67
75852;BME280;64500;52.632;20.656;2023-09-19T07:08:13;99573.36;;;48.35;15.85
75852;BME280;64500;52.632;20.656;2023-09-19T07:10:42;99578.83;;;48.40;15.74
75852;BME280;64500;52.632;20.656;2023-09-19T07:13:15;99583.36;;;48.37;15.71
75852;BME280;64500;52.632;20.656;2023-09-19T07:15:44;99583.75;;;48.41;16.06
75852;BME280;64500;52.632;20.656;2023-09-19T07:18:14;99589.53;;;48.45;15.98
75852;BME280;64500;52.632;20.656;2023-09-19T07:20:41;99588.60;;;48.13;15.68
75852;BME280;64500;52.632;20.656;2023-09-19T07:23:20;99594.04;;;47.48;15.81
75852;BME280;64500;52.632;20.656;2023-09-19T07:25:49;99593.67;;;46.92;16.14
75852;BME280;64500;52.632;20.656;2023-09-19T07:28:16;99591.95;;;46.80;16.39
75852;BME280;64500;52.632;20.656;2023-09-19T07:30:43;99590.73;;;46.88;16.31
75852;BME280;64500;52.632;20.656;2023-09-19T07:33:10;99590.41;;;47.07;16.70
75852;BME280;64500;52.632;20.656;2023-09-19T07:35:38;99601.04;;;47.50;16.78
75852;BME280;64500;52.632;20.656;2023-09-19T07:38:08;99608.45;;;47.81;16.15
75852;BME280;64500;52.632;20.656;2023-09-19T07:40:36;99610.75;;;47.67;15.89
75852;BME280;64500;52.632;20.656;2023-09-19T07:43:03;99611.11;;;47.21;16.42
75852;BME280;64500;52.632;20.656;2023-09-19T07:45:31;99621.99;;;47.05;16.24
75852;BME280;64500;52.632;20.656;2023-09-19T07:47:58;99629.80;;;46.97;16.52
75852;BME280;64500;52.632;20.656;2023-09-19T07:50:28;99631.20;;;46.45;16.72
75852;BME280;64500;52.632;20.656;2023-09-19T07:52:55;99615.53;;;44.75;18.11
75852;BME280;64500;52.632;20.656;2023-09-19T07:55:23;99627.37;;;43.29;19.30
75852;BME280;64500;52.632;20.656;2023-09-19T07:57:52;99635.98;;;42.75;20.17
75852;BME280;64500;52.632;20.656;2023-09-19T08:00:19;99641.38;;;42.31;22.62
75852;BME280;64500;52.632;20.656;2023-09-19T08:02:47;99648.84;;;42.15;26.49
75852;BME280;64500;52.632;20.656;2023-09-19T08:05:14;99651.98;;;41.87;25.08
75852;BME280;64500;52.632;20.656;2023-09-19T08:07:43;99652.94;;;42.02;22.92
75852;BME280;64500;52.632;20.656;2023-09-19T08:10:10;99659.80;;;42.19;22.94
75852;BME280;64500;52.632;20.656;2023-09-19T08:12:40;99667.04;;;42.39;22.96
75852;BME280;64500;52.632;20.656;2023-09-19T08:15:17;99671.71;;;42.50;23.14
75852;BME280;64500;52.632;20.656;2023-09-19T08:17:44;99673.92;;;42.60;23.26
75852;BME280;64500;52.632;20.656;2023-09-19T08:20:12;99675.25;;;42.81;23.23
75852;BME280;64500;52.632;20.656;2023-09-19T08:22:51;99680.73;;;42.98;23.30
75852;BME280;64500;52.632;20.656;2023-09-19T08:25:21;99676.86;;;43.04;23.23
75852;BME280;64500;52.632;20.656;2023-09-19T08:27:49;99680.58;;;43.10;23.26
75852;BME280;64500;52.632;20.656;2023-09-19T08:30:18;99679.32;;;43.12;23.53
75852;BME280;64500;52.632;20.656;2023-09-19T08:32:46;99675.30;;;43.12;22.99
75852;BME280;64500;52.632;20.656;2023-09-19T08:35:14;99673.55;;;43.08;22.93
75852;BME280;64500;52.632;20.656;2023-09-19T08:37:44;99671.52;;;42.65;23.39
75852;BME280;64500;52.632;20.656;2023-09-19T08:40:15;99674.41;;;42.36;23.19
75852;BME280;64500;52.632;20.656;2023-09-19T08:42:51;99672.34;;;42.39;23.43
75852;BME280;64500;52.632;20.656;2023-09-19T08:45:20;99673.59;;;42.32;23.22
75852;BME280;64500;52.632;20.656;2023-09-19T08:50:26;99675.77;;;42.24;23.78
75852;BME280;64500;52.632;20.656;2023-09-19T08:52:55;99681.61;;;42.33;23.91
75852;BME280;64500;52.632;20.656;2023-09-19T08:55:25;99685.98;;;42.35;23.83
75852;BME280;64500;52.632;20.656;2023-09-19T08:58:03;99686.31;;;42.68;23.70
75852;BME280;64500;52.632;20.656;2023-09-19T09:00:33;99689.92;;;42.76;24.09
75852;BME280;64500;52.632;20.656;2023-09-19T09:03:01;99689.30;;;42.60;23.89
75852;BME280;64500;52.632;20.656;2023-09-19T09:05:30;99687.90;;;42.41;23.85
75852;BME280;64500;52.632;20.656;2023-09-19T09:07:59;99683.05;;;42.09;24.85
75852;BME280;64500;52.632;20.656;2023-09-19T09:10:26;99678.52;;;42.04;24.96
75852;BME280;64500;52.632;20.656;2023-09-19T09:12:53;99685.05;;;41.92;26.50
75852;BME280;64500;52.632;20.656;2023-09-19T09:15:22;99685.41;;;42.13;25.25
75852;BME280;64500;52.632;20.656;2023-09-19T09:17:50;99687.42;;;42.35;25.19
75852;BME280;64500;52.632;20.656;2023-09-19T09:20:19;99686.70;;;42.57;25.15
75852;BME280;64500;52.632;20.656;2023-09-19T09:22:53;99685.55;;;42.82;25.15
75852;BME280;64500;52.632;20.656;2023-09-19T09:25:21;99674.48;;;42.98;25.35
75852;BME280;64500;52.632;20.656;2023-09-19T09:28:09;99678.67;;;43.20;24.85
75852;BME280;64500;52.632;20.656;2023-09-19T09:30:36;99675.95;;;43.15;25.02
75852;BME280;64500;52.632;20.656;2023-09-19T09:33:21;99678.14;;;43.18;24.83
75852;BME280;64500;52.632;20.656;2023-09-19T09:35:56;99684.85;;;43.55;24.83
75852;BME280;64500;52.632;20.656;2023-09-19T09:38:26;99680.41;;;43.48;24.42
75852;BME280;64500;52.632;20.656;2023-09-19T09:40:54;99679.23;;;43.05;24.50
75852;BME280;64500;52.632;20.656;2023-09-19T09:43:35;99673.42;;;42.73;25.04
75852;BME280;64500;52.632;20.656;2023-09-19T09:46:15;99675.84;;;42.50;26.95
75852;BME280;64500;52.632;20.656;2023-09-19T09:51:49;99670.75;;;42.91;25.57
75852;BME280;64500;52.632;20.656;2023-09-19T09:54:27;99672.14;;;42.84;25.06
75852;BME280;64500;52.632;20.656;2023-09-19T09:57:00;99670.02;;;42.99;25.02
75852;BME280;64500;52.632;20.656;2023-09-19T09:59:50;99666.14;;;43.09;25.48
75852;BME280;64500;52.632;20.656;2023-09-19T10:02:17;99667.26;;;43.44;24.84
75852;BME280;64500;52.632;20.656;2023-09-19T10:04:52;99668.10;;;43.49;24.56
75852;BME280;64500;52.632;20.656;2023-09-19T10:07:29;99673.73;;;43.75;25.12
75852;BME280;64500;52.632;20.656;2023-09-19T10:10:00;99677.02;;;44.23;24.89
75852;BME280;64500;52.632;20.656;2023-09-19T10:12:38;99672.75;;;44.67;24.90
75852;BME280;64500;52.632;20.656;2023-09-19T10:15:05;99673.38;;;45.21;24.91
75852;BME280;64500;52.632;20.656;2023-09-19T10:17:34;99681.17;;;45.66;24.58
75852;BME280;64500;52.632;20.656;2023-09-19T10:20:03;99690.20;;;45.90;24.66
75852;BME280;64500;52.632;20.656;2023-09-19T10:22:45;99698.69;;;46.30;24.41
75852;BME280;64500;52.632;20.656;2023-09-19T10:25:27;99701.75;;;46.42;24.18
75852;BME280;64500;52.632;20.656;2023-09-19T10:28:00;99701.55;;;46.54;23.96
75852;BME280;64500;52.632;20.656;2023-09-19T10:30:32;99702.30;;;46.34;23.76
75852;BME280;64500;52.632;20.656;2023-09-19T10:33:02;99702.44;;;46.56;23.96
75852;BME280;64500;52.632;20.656;2023-09-19T10:35:30;99704.98;;;47.03;24.19
75852;BME280;64500;52.632;20.656;2023-09-19T10:38:01;99699.41;;;47.46;23.94
75852;BME280;64500;52.632;20.656;2023-09-19T10:40:32;99700.88;;;47.97;23.89
75852;BME280;64500;52.632;20.656;2023-09-19T10:43:03;99709.41;;;48.24;23.60
75852;BME280;64500;52.632;20.656;2023-09-19T10:45:34;99716.34;;;48.34;23.35
75852;BME280;64500;52.632;20.656;2023-09-19T10:48:01;99718.77;;;48.71;22.71
75852;BME280;64500;52.632;20.656;2023-09-19T10:50:36;99719.18;;;48.59;22.70
75852;BME280;64500;52.632;20.656;2023-09-19T10:53:08;99719.66;;;48.34;22.94
75852;BME280;64500;52.632;20.656;2023-09-19T10:55:37;99724.60;;;48.42;23.24
75852;BME280;64500;52.632;20.656;2023-09-19T10:58:07;99728.73;;;48.63;23.17
75852;BME280;64500;52.632;20.656;2023-09-19T11:00:51;99733.03;;;48.85;23.28
75852;BME280;64500;52.632;20.656;2023-09-19T11:03:20;99737.41;;;49.00;23.25
75852;BME280;64500;52.632;20.656;2023-09-19T11:06:07;99738.66;;;48.96;22.78
75852;BME280;64500;52.632;20.656;2023-09-19T11:09:00;99731.86;;;48.99;22.73
75852;BME280;64500;52.632;20.656;2023-09-19T11:22:20;99732.00;;;50.25;22.39
75852;BME280;64500;52.632;20.656;2023-09-19T11:24:49;99735.58;;;50.41;22.09
75852;BME280;64500;52.632;20.656;2023-09-19T11:27:18;99738.45;;;50.51;22.27
75852;BME280;64500;52.632;20.656;2023-09-19T11:29:46;99736.08;;;50.66;21.97
75852;BME280;64500;52.632;20.656;2023-09-19T11:32:15;99739.57;;;50.84;21.65
75852;BME280;64500;52.632;20.656;2023-09-19T11:34:43;99736.15;;;51.03;21.31
75852;BME280;64500;52.632;20.656;2023-09-19T11:37:59;99733.69;;;51.35;21.38
75852;BME280;64500;52.632;20.656;2023-09-19T11:40:08;99734.67;;;52.06;21.12
75852;BME280;64500;52.632;20.656;2023-09-19T11:42:46;99738.73;;;52.37;20.80
75852;BME280;64500;52.632;20.656;2023-09-19T11:48:24;99751.89;;;53.11;19.87
75852;BME280;64500;52.632;20.656;2023-09-19T11:50:53;99759.52;;;53.08;19.48
75852;BME280;64500;52.632;20.656;2023-09-19T11:53:21;99756.79;;;52.83;19.52
75852;BME280;64500;52.632;20.656;2023-09-19T11:55:49;99756.77;;;52.80;19.68
75852;BME280;64500;52.632;20.656;2023-09-19T11:58:17;99759.80;;;52.76;19.26
75852;BME280;64500;52.632;20.656;2023-09-19T12:00:45;99756.52;;;52.84;18.99
75852;BME280;64500;52.632;20.656;2023-09-19T12:03:12;99761.51;;;52.99;18.84
75852;BME280;64500;52.632;20.656;2023-09-19T12:05:40;99761.98;;;53.25;18.62
75852;BME280;64500;52.632;20.656;2023-09-19T12:08:08;99765.70;;;53.35;18.45
75852;BME280;64500;52.632;20.656;2023-09-19T12:10:47;99765.20;;;53.30;18.20
75852;BME280;64500;52.632;20.656;2023-09-19T12:13:16;99768.89;;;53.47;18.53
75852;BME280;64500;52.632;20.656;2023-09-19T12:15:43;99768.27;;;53.48;18.40
75852;BME280;64500;52.632;20.656;2023-09-19T12:18:27;99767.73;;;53.45;18.21
75852;BME280;64500;52.632;20.656;2023-09-19T12:20:55;99760.85;;;53.58;18.24
75852;BME280;64500;52.632;20.656;2023-09-19T12:23:22;99764.63;;;53.73;17.87
75852;BME280;64500;52.632;20.656;2023-09-19T12:25:49;99765.00;;;53.75;18.09
75852;BME280;64500;52.632;20.656;2023-09-19T12:28:20;99767.58;;;53.62;17.72
75852;BME280;64500;52.632;20.656;2023-09-19T12:30:49;99767.59;;;53.23;17.30
75852;BME280;64500;52.632;20.656;2023-09-19T12:33:16;99768.10;;;52.87;17.43
75852;BME280;64500;52.632;20.656;2023-09-19T12:35:46;99768.52;;;52.61;17.62
75852;BME280;64500;52.632;20.656;2023-09-19T12:38:23;99766.20;;;52.67;17.49
75852;BME280;64500;52.632;20.656;2023-09-19T12:40:51;99769.14;;;52.38;16.99
75852;BME280;64500;52.632;20.656;2023-09-19T12:43:19;99771.39;;;51.98;17.15
75852;BME280;64500;52.632;20.656;2023-09-19T12:45:46;99765.33;;;51.82;16.81
75852;BME280;64500;52.632;20.656;2023-09-19T12:53:33;99760.20;;;50.64;16.73
75852;BME280;64500;52.632;20.656;2023-09-19T12:56:02;99766.98;;;50.18;16.73
75852;BME280;64500;52.632;20.656;2023-09-19T12:58:32;99766.82;;;49.50;17.02
75852;BME280;64500;52.632;20.656;2023-09-19T13:01:00;99764.14;;;49.27;17.15
75852;BME280;64500;52.632;20.656;2023-09-19T13:03:31;99769.06;;;48.81;17.11
75852;BME280;64500;52.632;20.656;2023-09-19T13:06:02;99770.04;;;48.50;17.42
75852;BME280;64500;52.632;20.656;2023-09-19T13:08:39;99765.27;;;48.41;17.84
75852;BME280;64500;52.632;20.656;2023-09-19T13:11:09;99765.14;;;48.17;17.62
75852;BME280;64500;52.632;20.656;2023-09-19T13:13:43;99769.98;;;47.50;18.12
75852;BME280;64500;52.632;20.656;2023-09-19T13:16:16;99768.86;;;47.20;18.25
75852;BME280;64500;52.632;20.656;2023-09-19T13:21:26;99776.96;;;47.07;18.28
75852;BME280;64500;52.632;20.656;2023-09-19T13:23:54;99785.29;;;46.95;18.34
75852;BME280;64500;52.632;20.656;2023-09-19T13:26:28;99781.06;;;46.84;18.63
75852;BME280;64500;52.632;20.656;2023-09-19T13:28:55;99778.75;;;46.99;18.58
75852;BME280;64500;52.632;20.656;2023-09-19T13:31:22;99782.55;;;47.01;18.26
75852;BME280;64500;52.632;20.656;2023-09-19T13:33:50;99788.44;;;46.85;18.39
75852;BME280;64500;52.632;20.656;2023-09-19T13:36:18;99790.06;;;46.57;18.51
75852;BME280;64500;52.632;20.656;2023-09-19T13:38:45;99793.12;;;46.34;18.69
75852;BME280;64500;52.632;20.656;2023-09-19T13:41:16;99795.23;;;46.22;18.78
75852;BME280;64500;52.632;20.656;2023-09-19T13:43:43;99794.96;;;46.05;18.72
75852;BME280;64500;52.632;20.656;2023-09-19T13:46:14;99789.22;;;45.98;18.73